Terminal Aerodrome Forecast
Issued by NWS Twin Cities, MN

Home | Current Version | Previous Version | Text Only | Print | Product List | Glossary On
Versions: 1 2 3 4 5 6 7 8 9 10 11 12 13 14 15 16 17
180
FTUS43 KMPX 280520
TAFEAU
TAF
KEAU 280520Z 2806/2906 34007KT P6SM OVC008
     FM281500 01010G17KT P6SM BKN015 OVC025
     FM282200 01008KT P6SM SCT020 OVC050=

USA.gov is the U.S. government's official web portal to all federal, state and local government web resources and services.